x

9439040 - Astoria, Or (asto3) Weather Station

9:30pm - Sun 19th Feb 2017 All times are PST. -8 hours from GMT.

  • Wind
    5mph, 6mph gusts
  • Sea Temp 42°f
  • Air Temp 42°f
  • Sea Pressure 1002mb
  • 9439040 - Astoria, Or
  • 9439040 - Astoria, Or

More Historic Weather Station data

Upgrade to MSW Pro to gain access to the past 30 days of data for over 8000 Wavebouys and Weather Stations around the globe.

Join Pro

Comparision Forecast

View Surf forecast
   
Sun 02/19 9:30pm 5 6 mph 1002mb 42f 42f
9:24pm 5 9 mph 1002mb 42f 42f
9:18pm 3 7 mph 1001.9mb 42f 42f
9:12pm 2 7 mph 1001.9mb 42f 42f
9:06pm 3 7 mph 1001.8mb 42f 42f
9:00pm 5 8 mph 1001.8mb 42f 42f
8:54pm 3 8 mph 1001.8mb 41f 42f
8:48pm 5 7 mph 1001.8mb 41f 42f
8:42pm 2 6 mph 1001.8mb 41f 42f
8:36pm 3 7 mph 1001.8mb 42f 42f
8:30pm 2 6 mph 1001.7mb 42f 42f
8:24pm 3 9 mph 1001.7mb 42f 42f
8:18pm 6 9 mph 1001.7mb 42f 42f
8:12pm 2 5 mph 1001.7mb 42f 43f
8:06pm 3 7 mph 1001.6mb 42f 43f
8:00pm 6 8 mph 1001.6mb 42f 43f
7:54pm 5 7 mph 1001.6mb 42f 43f
7:48pm 5 7 mph 1001.5mb 42f 44f
7:42pm 5 7 mph 1001.5mb 42f 44f
7:36pm 5 8 mph 1001.5mb 42f 44f
7:30pm 8 10 mph 1001.4mb 42f 44f
7:24pm 9 10 mph 1001.4mb 42f 44f
7:18pm 9 10 mph 1001.3mb 42f 44f
7:12pm 9 10 mph 1001.3mb 42f 44f
7:06pm 8 9 mph 1001.4mb 42f 44f
7:00pm 7 9 mph 1001.3mb 42f 44f
6:54pm 7 11 mph 1001.3mb 42f 44f
6:48pm 9 16 mph 1001.3mb 42f 45f
6:42pm 10 13 mph 1001.1mb 42f 45f
6:36pm 8 11 mph 1001mb 42f 44f
6:30pm 8 11 mph 1000.9mb 42f 44f
6:24pm 9 11 mph 1000.9mb 42f 45f
6:18pm 8 10 mph 1000.8mb 42f 45f
6:12pm 8 10 mph 1000.6mb 42f 45f
6:06pm 8 13 mph 1000.6mb 42f 45f
6:00pm 7 10 mph 1000.5mb 42f 45f
5:54pm 8 13 mph 1000.5mb 42f 45f
5:48pm 9 14 mph 1000.4mb 42f 46f
5:42pm 9 13 mph 1000.3mb 42f 45f
5:36pm 9 13 mph 1000.2mb 42f 46f
5:30pm 7 8 mph 1000.2mb 42f 45f
5:24pm 7 9 mph 1000mb 42f 45f
5:18pm 6 7 mph 999.9mb 42f 45f
5:12pm 6 11 mph 999.8mb 42f 45f
5:06pm 7 10 mph 999.8mb 42f 45f
5:00pm 6 11 mph 999.7mb 42f 46f
4:54pm 7 14 mph 999.7mb 42f 46f
4:48pm 11 17 mph 999.7mb 42f 46f
4:42pm 11 17 mph 999.6mb 42f 46f
4:36pm 10 18 mph 999.6mb 42f 46f
4:30pm 11 16 mph 999.6mb 42f 47f
4:24pm 10 15 mph 999.4mb 42f 47f
4:18pm 7 13 mph 999.4mb 42f 47f
4:12pm 5 9 mph 999.3mb 42f 46f
4:06pm 1 6 mph 999mb 42f 46f
4:00pm 3 8 mph 999.1mb 42f 46f
3:54pm 6 9 mph 999.2mb 42f 46f
3:48pm 3 6 mph 998.9mb 42f 46f
3:42pm 5 6 mph 998.7mb 42f 46f
3:36pm 6 9 mph 998.7mb 42f 46f
3:30pm 5 9 mph 998.6mb 42f 46f
3:24pm 7 11 mph 998.5mb 42f 46f
3:18pm 7 11 mph 998.5mb 42f 46f
3:12pm 8 14 mph 998.4mb 42f 47f
3:06pm 10 17 mph 998.4mb 42f 47f
3:00pm 10 15 mph 998.4mb 42f 48f
2:54pm 7 11 mph 998.4mb 42f 47f
2:48pm 11 17 mph 998.2mb 42f 47f
2:42pm 8 11 mph 998.1mb 42f 47f
2:36pm 5 11 mph 998.2mb 42f 47f
2:30pm 8 13 mph 998.2mb 42f 47f
2:24pm 6 13 mph 998.1mb 42f 47f
2:18pm 6 9 mph 998.1mb 41f 47f
2:12pm 6 11 mph 998.1mb 41f 47f
2:06pm 9 14 mph 998mb 41f 47f
2:00pm 9 14 mph 998.1mb 41f 47f
1:54pm 9 13 mph 998.1mb 41f 46f
1:48pm 10 17 mph 998.1mb 41f 46f
1:42pm 10 15 mph 998mb 41f 46f
1:36pm 8 14 mph 998mb 41f 46f
1:30pm 9 14 mph 998mb 41f 46f
1:24pm 5 14 mph 997.9mb 41f 45f
1:18pm 11 18 mph 997.9mb 41f 45f
1:12pm 7 10 mph 997.6mb 41f 45f
1:06pm 2 6 mph 997.3mb 41f 44f
1:00pm 2 6 mph 997.4mb 41f 44f
12:54pm 3 6 mph 997.4mb 41f 44f
12:48pm 2 3 mph 997.5mb 41f 44f
12:42pm 2 6 mph 997.6mb 41f 44f
12:36pm 2 6 mph 997.6mb 41f 43f
12:30pm 3 6 mph 997.6mb 41f 42f
12:24pm 3 6 mph 997.8mb 41f 42f
12:18pm 5 9 mph 997.9mb 41f 42f
12:12pm 3 8 mph 997.9mb 41f 42f
12:06pm 5 8 mph 998.1mb 41f 42f
12:00pm 6 11 mph 998.1mb 41f 42f
11:54am 7 14 mph 997.9mb 41f 42f
11:48am 9 15 mph 997.9mb 41f 41f
11:42am 9 14 mph 997.8mb 41f 41f
11:36am 9 13 mph 997.7mb 41f 41f
11:30am 8 14 mph 997.6mb 41f 41f
11:24am 10 13 mph 997.6mb 41f 41f
11:18am 9 11 mph 997.5mb 41f 42f
11:12am 8 14 mph 997.5mb 41f 41f
11:06am 8 11 mph 997.6mb 41f 41f
11:00am 6 7 mph 997.8mb 41f 41f
10:54am 5 10 mph 997.5mb 41f 41f
10:48am 3 9 mph 997mb 41f 41f
10:42am 8 14 mph 997mb 41f 41f
10:36am 8 10 mph 997.1mb 41f 41f
10:30am 7 13 mph 997mb 41f 41f
10:24am 11 15 mph 996.8mb 41f 41f
10:18am 10 16 mph 996.8mb 41f 41f
10:12am 8 15 mph 996.9mb 41f 42f
10:06am 6 11 mph 997mb 41f 42f
10:00am 9 15 mph 996.7mb 41f 42f
9:54am 6 8 mph 996.5mb 41f 42f
9:48am 5 11 mph 996.5mb 41f 42f
9:42am 3 10 mph 996.5mb 41f 42f
9:36am 6 11 mph 996.4mb 41f 42f
9:30am 5 9 mph 996.2mb 41f 41f
9:24am 8 14 mph 996.1mb 41f 42f
9:18am 8 14 mph 996.3mb 41f 42f
9:12am 8 15 mph 996.3mb 41f 42f
9:06am 11 15 mph 996.2mb 41f 42f
9:00am 6 9 mph 996.1mb 41f 41f
8:54am 2 6 mph 996.1mb 41f 41f
8:48am 6 9 mph 996mb 41f 41f
8:42am 7 10 mph 996.1mb 41f 41f
8:36am 2 9 mph 995.7mb 41f 41f
8:30am 7 9 mph 995.6mb 41f 41f
8:24am 3 9 mph 995.5mb 41f 41f
8:18am 2 6 mph 995.4mb 41f 41f
8:12am 5 9 mph 995.4mb 41f 41f
8:06am 6 10 mph 995.4mb 41f 41f
8:00am 7 11 mph 995.6mb 41f 41f
7:54am 9 13 mph 995.6mb 41f 42f
7:48am 2 7 mph 995.4mb 41f 41f
7:42am 6 8 mph 995.1mb 41f 41f
7:36am 3 8 mph 995.1mb 41f 41f
7:30am 5 10 mph 995.3mb 41f 41f
7:24am 6 13 mph 995.3mb 41f 40f
7:18am 3 9 mph 995.3mb 41f 40f
7:12am 5 9 mph 995.3mb 41f 40f
7:06am 5 7 mph 995.1mb 41f 40f
7:00am 5 11 mph 995.2mb 41f 40f
6:54am 7 13 mph 995.3mb 41f 41f
6:48am 10 15 mph 995.1mb 41f 41f
6:42am 8 13 mph 995.1mb 41f 40f
6:36am 11 16 mph 995.1mb 41f 40f
6:30am 8 13 mph 994.9mb 41f 40f
6:24am 8 11 mph 994.9mb 41f 41f
6:18am 7 13 mph 994.9mb 41f 41f
6:12am 11 15 mph 994.8mb 41f 41f
6:06am 9 16 mph 994.9mb 41f 41f
6:00am 11 18 mph 994.9mb 41f 41f
5:54am 13 20 mph 994.8mb 41f 41f
5:48am 11 20 mph 995.1mb 41f 41f
5:42am 11 18 mph 995mb 41f 42f
5:36am 9 14 mph 994.7mb 41f 41f
5:30am 8 14 mph 994.5mb 41f 41f
5:24am 8 11 mph 994.5mb 41f 41f
5:18am 6 11 mph 994.5mb 41f 41f
5:12am 8 10 mph 994.5mb 41f 42f
5:06am 10 16 mph 994.6mb 41f 42f
5:00am 6 9 mph 994.8mb 41f 41f
4:54am 6 7 mph 994.8mb 41f 41f
4:48am 3 7 mph 994.5mb 41f 41f
4:42am 3 5 mph 994.2mb 41f 40f
4:36am  -  2 mph 994.3mb 41f 40f
4:30am 1 2 mph 994.3mb 41f 40f
4:24am  -  2 mph 994.2mb 41f 40f
4:18am  -  2 mph 994.2mb 41f 41f
4:12am 2 3 mph 994.2mb 41f 41f
4:06am 1 2 mph 994.1mb 41f 40f
4:00am 2 3 mph 994mb 41f 41f
3:54am 1 2 mph 993.9mb 41f 40f
3:48am 1 3 mph 993.9mb 41f 41f
3:42am 1 5 mph 994mb 41f 41f
3:36am 2 8 mph 994mb 41f 41f
3:30am 3 8 mph 994.1mb 41f 41f
3:24am 3 7 mph 994.2mb 41f 41f
3:18am 5 9 mph 994.1mb 41f 41f
3:12am 5 7 mph 994.1mb 41f 41f
3:06am  -  7 mph 994.2mb 41f 40f
3:00am 6 8 mph 994.3mb 41f 40f
2:54am 3 8 mph 994.3mb 41f 40f
2:48am 6 9 mph 994.4mb 41f 40f
2:42am 3 6 mph 994.4mb 41f 40f
2:36am 3 9 mph 994.4mb 41f 40f
2:30am 3 6 mph 994.4mb 41f 40f
2:24am 5 7 mph 994.4mb 41f 40f
2:18am 3 9 mph 994.6mb 41f 40f
2:12am 3 7 mph 994.6mb 41f 40f
2:06am 3 11 mph 994.6mb 41f 40f
2:00am 8 11 mph 994.5mb 41f 40f
1:54am 2 6 mph 994.7mb 41f 40f
1:48am 3 7 mph 994.8mb 41f 40f
1:42am 3 6 mph 994.8mb 41f 40f
1:36am 3 10 mph 994.8mb 41f 40f
1:30am 2 8 mph 994.8mb 41f 40f
1:24am 6 11 mph 994.8mb 41f 40f
1:18am 2 5 mph 994.9mb 41f 40f
1:12am 2 7 mph 994.9mb 41f 40f
1:06am 5 11 mph 995.2mb 41f 40f
1:00am 7 11 mph 995.4mb 41f 40f
12:54am 3 6 mph 995.3mb 41f 41f
12:48am 1 6 mph 995.2mb 41f 41f
12:42am 2 6 mph 995.2mb 41f 41f
12:36am 2 5 mph 995.4mb 41f 41f
12:30am 2 6 mph 995.4mb 41f 41f
12:24am 2 3 mph 995.5mb 41f 41f
12:18am 2 3 mph 995.6mb 41f 41f
12:12am 3 6 mph 995.7mb 41f 41f
12:06am 1 3 mph 995.7mb 41f 41f
12:00am 1 5 mph 995.7mb 41f 41f
Sat 02/18 11:54pm 3 5 mph 995.7mb 41f 41f
11:48pm 3 6 mph 995.8mb 41f 41f
11:42pm 2 3 mph 995.9mb 41f 41f
11:36pm  -  2 mph 996mb 41f 41f
11:30pm 1 3 mph 996.1mb 41f 41f
11:24pm 1 5 mph 996.1mb 41f 41f
11:18pm 2 3 mph 996.2mb 41f 41f
11:12pm 1 2 mph 996.2mb 41f 41f
11:06pm 2 5 mph 996.2mb 41f 41f
11:00pm  -  1 mph 996.3mb 41f 41f
10:54pm 1 2 mph 996.4mb 41f 41f
10:48pm  -  2 mph 996.4mb 41f 41f
10:42pm  -  3 mph 996.4mb 41f 41f
10:36pm  -  2 mph 996.5mb 41f 41f
10:30pm  -  2 mph 996.6mb 41f 41f
10:24pm 2 6 mph 996.6mb 41f 41f
10:18pm 3 9 mph 996.6mb 41f 42f
10:12pm 5 6 mph 996.6mb 41f 41f
10:06pm 2 3 mph 996.6mb 41f 41f
10:00pm 2
mph
996.6mb 41f 41f
9:54pm  -  1 mph 996.6mb 42f 41f
9:48pm 2 5 mph 996.6mb 41f 41f
9:42pm 1 3 mph 996.7mb 41f 41f
9:36pm 1 2 mph 996.7mb 41f 41f
9:30pm  -  2 mph 996.7mb 41f 42f
9:24pm 3 5 mph 996.7mb 42f 42f
9:18pm 2 5 mph 996.7mb 42f 42f
9:12pm 2 3 mph 996.7mb 42f 41f
9:06pm 3 5 mph 996.8mb 42f 41f
9:00pm 3 5 mph 996.9mb 42f 41f
8:54pm 5 7 mph 997mb 42f 42f
8:48pm 3 5 mph 997mb 42f 42f
8:42pm 3 5 mph 997.1mb 42f 42f
8:36pm  -  5 mph 997.2mb 42f 42f
8:30pm 5 7 mph 997.2mb 42f 42f
8:24pm 6 7 mph 997.1mb 41f 42f
8:18pm 6 9 mph 997mb 42f 42f
8:12pm 7 10 mph 997mb 42f 42f
8:06pm 8 11 mph 997.1mb 41f 43f
8:00pm 8 11 mph 997.1mb 41f 43f
7:54pm 9 13 mph 997.1mb 41f 42f
7:48pm 8 9 mph 997.2mb 41f 42f
7:42pm 7 10 mph 997.2mb 41f 43f
7:36pm 7 11 mph 997.2mb 41f 43f
7:30pm 5 8 mph 997.1mb 41f 43f
7:24pm 6 8 mph 997.2mb 41f 43f
7:18pm 6 8 mph 997.3mb 41f 43f
7:12pm 6 10 mph 997.3mb 42f 43f
7:06pm 7 14 mph 997.3mb 42f 43f
7:00pm 5
mph
997.3mb 42f 43f
6:54pm 5
mph
997.3mb 42f 44f
6:48pm 3 5 mph 997.2mb 42f 44f
6:42pm 3 6 mph 997.2mb 42f 44f
6:36pm 6 7 mph 997.3mb 42f 44f
6:30pm 5 6 mph 997.3mb 42f 44f
6:24pm 2 3 mph 997.3mb 42f 44f
6:18pm 3 6 mph 997.3mb 42f 44f
6:12pm 3 5 mph 997.3mb 42f 44f
6:06pm 2 6 mph 997.2mb 42f 44f
6:00pm 5
mph
997.2mb 42f 44f
5:54pm 3 6 mph 997.1mb 42f 44f
5:48pm 3 9 mph 997.1mb 42f 44f
5:42pm 6 7 mph 997.2mb 42f 44f
5:36pm 3 7 mph 997.1mb 42f 44f
5:30pm 5 6 mph 997.2mb 42f 44f
5:24pm 5 6 mph 997.2mb 42f 44f
5:18pm 5 6 mph 997.2mb 42f 44f
5:12pm 5 6 mph 997.2mb 42f 44f
5:06pm 2 5 mph 997.3mb 42f 43f
5:00pm 3 6 mph 997.2mb 42f 43f
4:54pm 5 6 mph 997.2mb 42f 43f
4:48pm 3 5 mph 997.2mb 42f 43f
4:42pm 3 6 mph 997.2mb 42f 43f
4:36pm 3 6 mph 997.1mb 42f 43f
4:30pm 6 8 mph 997.1mb 42f 43f
4:24pm 3 5 mph 997.1mb 42f 43f
4:18pm 1 3 mph 997.1mb 42f 43f
4:12pm 2 5 mph 997.1mb 42f 43f
4:06pm 3 5 mph 997mb 42f 43f
4:00pm 5 7 mph 997mb 42f 44f
3:54pm 6 8 mph 997mb 42f 44f
3:48pm 6 9 mph 997.1mb 42f 44f
3:42pm 9 11 mph 997.1mb 42f 44f
3:36pm 6 9 mph 997.1mb 42f 44f
3:30pm 8 10 mph 997mb 42f 45f
3:24pm 3 5 mph 997mb 42f 45f
3:18pm 2 3 mph 996.9mb 42f 44f
3:12pm 2 3 mph 996.9mb 42f 44f
3:06pm 2 6 mph 996.9mb 42f 44f
3:00pm 5 7 mph 996.9mb 42f 44f
2:54pm 7
mph
996.9mb 42f 45f
2:48pm 7
mph
996.9mb 42f 45f
2:42pm 2 5 mph 996.9mb 42f 44f
2:36pm 3 6 mph 996.9mb 42f 44f
2:30pm 5 7 mph 996.9mb 42f 44f
2:24pm 6 8 mph 996.8mb 42f 44f
2:18pm 6 7 mph 996.7mb 42f 45f
2:12pm 5 7 mph 996.7mb 42f 45f
2:06pm 6 8 mph 996.7mb 42f 45f
2:00pm 2 3 mph 996.7mb 42f 45f
1:54pm 3 6 mph 996.6mb 42f 45f
1:48pm 2 5 mph 996.6mb 42f 46f
1:42pm 1 3 mph 996.6mb 42f 46f
1:36pm 2 3 mph 996.6mb 42f 47f
1:30pm  -  2 mph 996.6mb 42f 47f
1:24pm 1 5 mph 996.8mb 42f 46f
1:18pm 1 2 mph 996.6mb 42f 46f
1:12pm 1 2 mph 996.7mb 42f 45f
1:06pm  -  1 mph 996.8mb 42f 44f
1:00pm  -  1 mph 996.8mb 42f 44f
12:54pm  -  2 mph 996.8mb 42f 43f
12:48pm 3
mph
996.8mb 42f 42f
12:42pm  -  2 mph 996.9mb 42f 42f
12:36pm 2
mph
996.8mb 42f 42f
12:30pm  -  1 mph 996.8mb 42f 43f
12:24pm  -  2 mph 996.7mb 41f 43f
12:18pm 2
mph
996.7mb 41f 42f
12:12pm  -  2 mph 996.6mb 41f 43f
12:06pm 1 3 mph 996.7mb 41f 43f
12:00pm 2 3 mph 996.7mb 41f 42f
11:54am  -  1 mph 996.7mb 41f 43f
11:48am 1
mph
996.7mb 41f 43f
11:42am  -  1 mph 996.7mb 41f 44f
11:36am  -  1 mph 996.6mb 41f 44f
11:30am  -  1 mph 996.7mb 41f 44f
11:24am  -  1 mph 996.8mb 41f 44f
11:18am  -  mph 996.7mb 41f 44f
11:12am  -  1 mph 996.7mb 41f 44f
11:06am  -  1 mph 996.7mb 41f 43f
11:00am 1 2 mph 996.7mb 41f 43f
10:54am 2 3 mph 996.7mb 41f 44f
10:48am  -  2 mph 996.7mb 42f 44f
10:42am 1 2 mph 996.7mb 42f 44f
10:36am 2 3 mph 996.7mb 42f 44f
10:30am 2 3 mph 996.7mb 41f 44f
10:24am 1 3 mph 996.6mb 41f 44f
10:18am 2 3 mph 996.6mb 41f 43f
10:12am 2 5 mph 996.7mb 42f 43f
10:06am 1 3 mph 996.7mb 42f 43f
10:00am  -  1 mph 996.7mb 42f 44f
9:54am  -  2 mph 996.7mb 42f 44f
9:48am  -  3 mph 996.8mb 42f 43f
9:42am 1 5 mph 996.7mb 42f 43f
9:36am 2 3 mph 996.6mb 42f 43f
9:30am 2 3 mph 996.7mb 42f 42f
9:24am 2 5 mph 996.7mb 42f 42f
9:18am 5 6 mph 996.7mb 42f 42f
9:12am 3 5 mph 996.6mb 42f 42f
9:06am 3 6 mph 996.5mb 42f 42f
9:00am 5 6 mph 996.6mb 42f 42f
8:54am 5 6 mph 996.5mb 42f 42f
8:48am 2 3 mph 996.5mb 42f 42f
8:42am 3 6 mph 996.6mb 41f 42f
8:36am 3 6 mph 996.6mb 41f 42f
8:30am 3 6 mph 996.4mb 41f 42f
8:24am 3 5 mph 996.4mb 42f 42f
8:18am 3 6 mph 996.4mb 42f 42f
8:12am 3 6 mph 996.3mb 42f 42f
8:06am 3 6 mph 996.4mb 42f 42f
8:00am 3 6 mph 996.4mb 42f 42f
7:54am 5 7 mph 996.5mb 42f 42f
7:48am 5 6 mph 996.5mb 42f 42f
7:42am 3 5 mph 996.3mb 42f 43f
7:36am 2 3 mph 996.3mb 42f 43f
7:30am  -  1 mph 996.4mb 42f 43f
7:24am 1 3 mph 996.4mb 42f 43f
7:18am 2 6 mph 996.4mb 42f 43f
7:12am 3 9 mph 996.4mb 42f 44f
7:06am 6 9 mph 996.5mb 42f 44f
7:00am 6 8 mph 996.4mb 42f 44f
6:54am 5 6 mph 996.5mb 42f 44f
6:48am 5 8 mph 996.5mb 42f 44f
6:42am 5 8 mph 996.5mb 42f 44f
6:36am 5 7 mph 996.5mb 42f 44f
6:30am 5 9 mph 996.5mb 42f 44f
6:24am 6 9 mph 996.5mb 42f 44f
6:18am 6 9 mph 996.6mb 42f 44f
6:12am 7 9 mph 996.6mb 41f 44f
6:06am 7 9 mph 996.6mb 41f 44f
6:00am 8 9 mph 996.6mb 41f 43f
5:54am 6 8 mph 996.6mb 41f 43f
5:48am 5 8 mph 996.6mb 41f 43f
5:42am 6 10 mph 996.6mb 41f 43f
5:36am 8 10 mph 996.6mb 41f 44f
5:30am 8 10 mph 996.6mb 41f 44f
5:24am 7 9 mph 996.6mb 41f 43f
5:18am 7 10 mph 996.6mb 41f 43f
5:12am 8 10 mph 996.5mb 41f 43f
5:06am 8 10 mph 996.5mb 42f 44f
5:00am 3 9 mph 996.5mb 42f 44f
4:54am 5 8 mph 996.4mb 42f 44f
4:48am 2 6 mph 996.4mb 42f 44f
4:42am 2 6 mph 996.4mb 42f 43f
4:36am 1 2 mph 996.4mb 42f 43f
4:30am 2 7 mph 996.3mb 42f 44f
4:24am 3 9 mph 996.3mb 42f 44f
4:18am 2 5 mph 996.3mb 42f 43f
4:12am 1 5 mph 996.3mb 42f 43f
4:06am 3 5 mph 996.3mb 41f 43f
4:00am 3 5 mph 996.4mb 41f 43f
3:54am 3 5 mph 996.4mb 41f 43f
3:48am 2 6 mph 996.4mb 42f 43f
3:42am 3 5 mph 996.4mb 42f 43f
3:36am 2 8 mph 996.4mb 42f 44f
3:30am 9 14 mph 996.3mb 42f 44f
3:24am 10 14 mph 996.3mb 41f 45f
3:18am 11 14 mph 996.3mb 41f 44f
3:12am 10 13 mph 996.3mb 41f 44f
3:06am 10 13 mph 996.4mb 41f 44f
3:00am 7 11 mph 996.3mb 42f 45f
2:54am 7 10 mph 996.3mb 42f 44f
2:48am 9 11 mph 996.3mb 42f 44f
2:42am 9 10 mph 996.4mb 42f 44f
2:36am 7 9 mph 996.4mb 42f 44f
2:30am 7 9 mph 996.4mb 42f 44f
2:24am 6 10 mph 996.5mb 42f 44f
2:18am 9 11 mph 996.4mb 42f 44f
2:12am 9 10 mph 996.3mb 42f 45f
2:06am 8 10 mph 996.3mb 42f 45f
2:00am 7 10 mph 996.4mb 42f 45f
1:54am 8 10 mph 996.4mb 42f 45f
1:48am 7 10 mph 996.4mb 42f 45f
1:42am 6 9 mph 996.4mb 42f 46f
1:36am 7 11 mph 996.4mb 42f 46f
1:30am 8 11 mph 996.3mb 42f 46f
1:24am 7 11 mph 996.3mb 42f 46f
1:18am 8 11 mph 996.3mb 42f 46f
1:12am 8 11 mph 996.3mb 41f 46f
1:06am 9 14 mph 996.3mb 41f 46f
1:00am 8 13 mph 996.4mb 41f 46f
12:54am 9 14 mph 996.4mb 41f 46f
12:48am 9 14 mph 996.5mb 41f 46f
12:42am 8 9 mph 996.5mb 41f 45f
12:36am 7 10 mph 996.5mb 41f 45f
12:30am 7 10 mph 996.5mb 41f 45f
12:24am 8 11 mph 996.6mb 41f 46f
12:18am 8 10 mph 996.6mb 41f 46f
12:12am 7 10 mph 996.5mb 41f 46f
12:06am 8 11 mph 996.4mb 41f 46f
12:00am 8 10 mph 996.5mb 41f 46f
Fri 02/17 11:54pm 7 11 mph 996.5mb 41f 46f
11:48pm 7 14 mph 996.6mb 41f 46f
11:42pm 8 14 mph 996.7mb 41f 46f
11:36pm 9 13 mph 996.7mb 41f 47f
11:30pm 7 13 mph 996.7mb 41f 47f
11:24pm 8 13 mph 996.8mb 41f 47f
11:18pm 6 13 mph 996.8mb 41f 47f
11:12pm 6 11 mph 996.8mb 41f 47f
11:06pm 7 10 mph 996.9mb 41f 47f
11:00pm 5 9 mph 996.9mb 41f 47f
10:54pm 6 9 mph 997mb 41f 47f
10:48pm 6 8 mph 997mb 41f -
10:42pm 5 9 mph 997mb 41f -
10:36pm 6 9 mph 997.1mb 41f -
10:30pm 7 9 mph 997.1mb 41f 47f
10:24pm 5 9 mph 997.2mb 41f 48f
10:18pm 7 9 mph 997.2mb 41f 48f
10:12pm 6 9 mph 997.3mb 41f 48f
10:06pm 3 7 mph 997.4mb 41f 48f
10:00pm 5 8 mph 997.5mb 41f 49f
9:54pm 6 9 mph 997.5mb 41f 49f
9:48pm 6 8 mph 997.5mb 42f 49f
9:42pm 6 8 mph 997.5mb 42f 49f
9:36pm 5 8 mph 997.6mb 42f 49f
9:30pm 3 8 mph 997.7mb 43f 49f
9:24pm 3 7 mph 997.7mb 43f 49f
9:18pm 5 7 mph 997.6mb 43f 49f
9:12pm 5 9 mph 997.7mb 42f 49f
9:06pm 5 8 mph 997.7mb 42f 49f
9:00pm 3 6 mph 997.7mb 42f 49f
8:54pm 3 7 mph 997.7mb 42f 49f
8:48pm 6 9 mph 997.7mb 43f 49f
8:42pm 5 9 mph 997.7mb 42f 49f
8:36pm 6 9 mph 997.7mb 42f 49f
8:30pm 2 8 mph 997.8mb 42f 49f
8:24pm 7 9 mph 997.8mb 42f 49f
8:18pm 6 10 mph 997.8mb 42f 49f
8:12pm 6 10 mph 997.8mb 42f 49f
8:06pm 8 10 mph 997.8mb 41f 49f
8:00pm 6 9 mph 997.9mb 42f 49f
7:54pm 7 9 mph 997.9mb 42f 49f
7:48pm 7 9 mph 997.9mb 42f 49f
7:42pm 6 8 mph 998mb 42f 49f
7:36pm 2 6 mph 998mb 42f 49f
7:30pm 1 6 mph 998.1mb 42f 49f
7:24pm 3 7 mph 998.1mb 42f 49f
7:18pm 3 5 mph 998.2mb 42f 49f
7:12pm 5 8 mph 998.2mb 42f 49f
7:06pm 6 10 mph 998.3mb 42f 49f
7:00pm 3 7 mph 998.3mb 42f 49f
6:54pm 6 10 mph 998.3mb 42f 49f
6:48pm 8 10 mph 998.3mb 42f 49f
6:42pm 7 10 mph 998.3mb 42f 49f
6:36pm 8 10 mph 998.4mb 42f 49f
6:30pm 9 11 mph 998.3mb 42f 50f
6:24pm 8 13 mph 998.3mb 42f 50f
6:18pm 6 11 mph 998.3mb 42f 50f
6:12pm 8 13 mph 998.3mb 43f 50f
6:06pm 9 11 mph 998.3mb 43f 50f
6:00pm 8 13 mph 998.3mb 43f 50f
5:54pm 10 13 mph 998.2mb 43f 50f
5:48pm 8 11 mph 998.2mb 43f 50f
5:42pm 6 10 mph 998.3mb 43f 49f
5:36pm 7 11 mph 998.3mb 43f 49f
5:30pm 7 10 mph 998.4mb 43f 50f
5:24pm 7 9 mph 998.4mb 43f 50f
5:18pm 7 9 mph 998.4mb 43f 49f
5:12pm 8 10 mph 998.5mb 43f 50f
5:06pm 9 13 mph 998.5mb 43f 51f
5:00pm 7 11 mph 998.6mb 43f 51f
4:54pm 9 14 mph 998.7mb 43f 51f
4:48pm 9 13 mph 998.6mb 43f 51f
4:42pm 7 10 mph 998.7mb 43f 50f
4:36pm 5 7 mph 998.7mb 43f 50f
4:30pm 2 5 mph 998.8mb 43f 49f
4:24pm 2 5 mph 998.9mb 43f 49f
4:18pm  -  2 mph 998.9mb 43f 48f
4:12pm  -  2 mph 999mb 43f 47f
4:06pm  -  2 mph 999mb 43f 48f
4:00pm 1
mph
999mb 43f 49f
3:54pm  -  mph 999.1mb 43f 49f
3:48pm  -  1 mph 999.1mb 43f 48f
3:42pm  -  2 mph 999.1mb 43f 47f
3:36pm 1 2 mph 999.1mb 43f 46f
3:30pm 1 2 mph 999.1mb 42f 47f
3:24pm 1 2 mph 999.2mb 42f 47f
3:18pm 2 3 mph 999.3mb 42f 47f
3:12pm 2 3 mph 999.4mb 42f 47f
3:06pm 3 5 mph 999.6mb 43f 46f
3:00pm 2 5 mph 999.7mb 43f 46f
2:54pm 1 2 mph 999.8mb 43f 48f
2:48pm 2 6 mph 999.8mb 43f 48f
2:42pm 3 7 mph 999.9mb 43f 50f
2:36pm 2 7 mph 1000mb 43f 53f
2:30pm 5 7 mph 1000mb 43f 52f
2:24pm 3 6 mph 1000.1mb 43f 52f
2:18pm 2 5 mph 1000.2mb 43f 52f
2:06pm 3 7 mph 1000.3mb 43f 51f
2:00pm 3 8 mph 1000.5mb 42f 51f
1:54pm 2 6 mph 1000.5mb 42f 52f
1:48pm  -  2 mph 1000.6mb 42f 53f
1:42pm 2 6 mph 1000.7mb 42f 52f
1:36pm 5 7 mph 1000.8mb 42f 51f
1:30pm 6 7 mph 1000.9mb 42f 50f
1:24pm 5 6 mph 1001mb 42f 49f
1:18pm 3 5 mph 1001.1mb 42f 48f
1:12pm 2 3 mph 1001.2mb 42f 47f
1:06pm 3 5 mph 1001.3mb 42f 46f
1:00pm 5 6 mph 1001.4mb 42f 46f
12:54pm 6
mph
1001.5mb 42f 45f
12:48pm 6
mph
1001.6mb 42f 46f
12:42pm 2 5 mph 1001.8mb 42f 46f
12:36pm 2 3 mph 1001.9mb 42f 46f
12:30pm 3 5 mph 1002mb 42f 47f
12:24pm 3 5 mph 1002.2mb 42f 47f
12:18pm 3 5 mph 1002.4mb 42f 46f
12:12pm 3 6 mph 1002.6mb 42f 46f
12:06pm 3 6 mph 1002.7mb 42f 46f
12:00pm 5 7 mph 1002.8mb 42f 45f
11:54am 5 7 mph 1003mb 42f 45f
11:48am 5 7 mph 1003.1mb 42f 44f
11:42am 7 8 mph 1003.2mb 42f 44f
11:36am 6 7 mph 1003.3mb 42f 45f
11:30am 2 3 mph 1003.4mb 42f 47f
11:24am 1 3 mph 1003.6mb 42f 47f
11:18am 1 5 mph 1003.7mb 42f 47f
11:12am 2 6 mph 1003.8mb 42f 46f
11:06am 5 6 mph 1003.9mb 42f 46f
11:00am 2 3 mph 1003.9mb 42f 46f
10:54am 2 3 mph 1003.9mb 42f 46f
10:48am 2 3 mph 1004.1mb 42f 46f
10:42am  -  2 mph 1004.1mb 42f 46f
10:36am 1 3 mph 1004.1mb 42f 45f
10:30am 5 6 mph 1004.2mb 42f 45f
10:24am  -  2 mph 1004.3mb 42f 45f
10:18am 2 5 mph 1004.3mb 42f 44f
10:12am 5 6 mph 1004.4mb 42f 44f
10:06am 5 6 mph 1004.5mb 42f 44f
10:00am 2 5 mph 1004.7mb 42f 45f
9:54am 2 5 mph 1004.8mb 42f 44f
9:48am 1 5 mph 1004.9mb 42f 45f
9:42am 2 3 mph 1005mb 42f 45f
9:36am 2 5 mph 1005.1mb 42f 44f
9:30am  -  5 mph 1005.2mb 42f 44f
9:24am 1 2 mph 1005.1mb 42f 45f
9:18am  -  2 mph 1005.2mb 42f 44f
9:12am 2 8 mph 1005.3mb 42f 45f
9:06am 7 10 mph 1005.5mb 42f 44f
9:00am 1 2 mph 1005.5mb 42f 44f
8:54am 2
mph
1005.6mb 42f 43f
8:48am 1 5 mph 1005.7mb 42f 43f
8:42am 1 2 mph 1005.7mb 42f 43f
8:36am 1 5 mph 1005.6mb 42f 43f
8:30am 2 3 mph 1005.6mb 42f 42f
8:24am 2 5 mph 1005.7mb 42f 42f
8:18am 2 3 mph 1005.7mb 42f 42f
8:12am  -  3 mph 1005.6mb 42f 42f
8:06am 1 5 mph 1005.5mb 42f 42f
8:00am 3 6 mph 1005.6mb 42f 42f
7:54am 2 7 mph 1005.7mb 42f 42f
7:48am 2 6 mph 1005.8mb 42f 42f
7:42am 2 5 mph 1005.9mb 42f 42f
7:36am 5 7 mph 1005.9mb 42f 43f
7:30am 3 7 mph 1005.9mb 42f 43f
7:24am 2 7 mph 1005.9mb 42f 42f
7:18am 3 7 mph 1005.9mb 42f 42f
7:12am 1 5 mph 1006mb 42f 42f
7:06am 3 6 mph 1006.1mb 42f 42f
7:00am 5 7 mph 1006.2mb 42f 42f
6:54am 2 5 mph 1006.3mb 42f 42f
6:48am 2 5 mph 1006.4mb 42f 43f
6:42am 3 8 mph 1006.4mb 42f 43f
6:36am 5 8 mph 1006.5mb 42f 43f
6:30am 3 7 mph 1006.5mb 42f 43f
6:24am 5 8 mph 1006.5mb 42f 43f
6:18am 3 6 mph 1006.5mb 42f 42f
6:12am 3 7 mph 1006.6mb 42f 42f
6:06am 6 8 mph 1006.6mb 42f 42f
6:00am 1 7 mph 1006.6mb 42f 42f
5:54am 5 7 mph 1006.7mb 42f 42f
5:48am 2 7 mph 1006.8mb 42f 42f
5:42am 1 2 mph 1006.8mb 42f 42f
5:36am 1 3 mph 1006.8mb 42f 42f
5:30am 2 3 mph 1006.8mb 42f 42f
5:24am 1 6 mph 1006.8mb 42f 42f
5:18am 5 9 mph 1006.8mb 42f 42f
5:12am 3 7 mph 1006.8mb 42f 42f
5:06am 5 8 mph 1006.9mb 42f 42f
5:00am 5 6 mph 1006.9mb 42f 42f
4:54am 3 6 mph 1006.9mb 42f 41f
4:48am 5 6 mph 1006.8mb 42f 41f
4:42am 2 6 mph 1006.9mb 42f 41f
4:36am 3 6 mph 1006.9mb 42f 41f
4:30am 5 8 mph 1006.9mb 42f 41f
4:24am 7 9 mph 1006.9mb 42f 41f
4:18am 5 9 mph 1006.9mb 42f 41f
4:12am 5 9 mph 1006.9mb 42f 41f
4:06am 1 3 mph 1006.9mb 42f 41f
4:00am 3 6 mph 1006.9mb 42f 41f
3:54am 5 7 mph 1007mb 42f 41f
3:48am 5 7 mph 1007mb 42f 41f
3:42am 1 3 mph 1007mb 42f 42f
3:36am 3 6 mph 1007.1mb 42f 42f
3:30am 3 5 mph 1007.2mb 42f 42f
3:24am 3
mph
1007.2mb 42f 42f
3:18am 2 3 mph 1007.3mb 42f 42f
3:12am 2 3 mph 1007.3mb 42f 42f
3:06am 2 3 mph 1007.4mb 42f 42f
3:00am 2 5 mph 1007.4mb 42f 42f
2:54am 1 5 mph 1007.4mb 42f 42f
2:48am 2 6 mph 1007.5mb 42f 41f
2:42am 6 7 mph 1007.5mb 42f 41f
2:36am 5 6 mph 1007.5mb 42f 41f
2:30am 5 6 mph 1007.4mb 42f 41f
2:24am 3 6 mph 1007.4mb 42f 41f
2:18am 5 6 mph 1007.4mb 42f 41f
2:12am 6 9 mph 1007.5mb 42f 41f
2:06am 7 8 mph 1007.5mb 42f 41f
2:00am 7 9 mph 1007.5mb 42f 41f
1:54am 8 9 mph 1007.6mb 42f 41f
1:48am 6 7 mph 1007.5mb 42f 42f
1:42am 5 7 mph 1007.5mb 42f 42f
1:36am 5 8 mph 1007.5mb 42f 42f
1:30am 5 10 mph 1007.5mb 42f 42f
1:24am 5 7 mph 1007.5mb 42f 42f
1:18am 5 7 mph 1007.5mb 42f 42f
1:12am 5 6 mph 1007.6mb 42f 42f
1:06am 5 8 mph 1007.6mb 42f 44f
1:00am 6 7 mph 1007.7mb 42f 45f
12:54am 6 7 mph 1007.7mb 43f 45f
12:48am 6 8 mph 1007.8mb 42f 45f
12:42am 6 8 mph 1007.8mb 42f 45f
12:36am 6 9 mph 1007.8mb 42f 46f
12:30am 7 9 mph 1007.9mb 42f 46f
12:24am 7 9 mph 1007.9mb 42f 45f
12:18am 7 8 mph 1007.9mb 42f 44f
12:12am 7 9 mph 1007.9mb 42f 45f
12:06am 6 8 mph 1007.9mb 42f 46f
12:00am 6 9 mph 1007.8mb 42f 46f
Thu 02/16 11:54pm 6 9 mph 1007.8mb 42f 46f
11:48pm 8 10 mph 1007.8mb 42f 46f
11:42pm 8 9 mph 1007.8mb 42f 46f
11:36pm 7 10 mph 1007.8mb 42f 46f
11:30pm 8 11 mph 1007.7mb 42f 46f
11:24pm 8 10 mph 1007.6mb 42f 46f
11:18pm 8 11 mph 1007.7mb 42f 46f
11:12pm 8 11 mph 1007.7mb 42f 46f
11:06pm 8 11 mph 1007.7mb 42f 46f
11:00pm 9 11 mph 1007.7mb 42f 46f
10:54pm 7 8 mph 1007.7mb 42f 46f
10:48pm 8 11 mph 1007.6mb 42f 46f
10:42pm 8 10 mph 1007.6mb 42f 46f
10:36pm 7 9 mph 1007.6mb 42f 46f
10:30pm 8 10 mph 1007.6mb 42f 46f
10:24pm 7 10 mph 1007.5mb 42f 46f
10:18pm 7 9 mph 1007.5mb 42f 46f
10:12pm 6 9 mph 1007.5mb 42f 46f
10:06pm 7 9 mph 1007.5mb 42f 46f
10:00pm 8 11 mph 1007.5mb 42f 47f
9:54pm 8 10 mph 1007.4mb 42f 46f
9:48pm 7 11 mph 1007.4mb 42f 46f
9:42pm 7 11 mph 1007.2mb 42f 47f
9:36pm 8 11 mph 1007.2mb 42f 47f
9:30pm 9 11 mph 1007.4mb 42f 47f
9:24pm 8 11 mph 1007.4mb 42f 47f
9:18pm 8 13 mph 1007.3mb 42f 47f
9:12pm 10 14 mph 1007.3mb 42f 47f
9:06pm 10 13 mph 1007.2mb 42f 47f
9:00pm 8 10 mph 1007.1mb 42f 47f
8:54pm 9 11 mph 1007mb 42f 47f
8:48pm 8 11 mph 1006.9mb 43f 47f
8:42pm 7 8 mph 1006.9mb 43f 47f
8:36pm 8 13 mph 1006.8mb 43f 47f
8:30pm 8 14 mph 1006.7mb 43f 47f
8:24pm 6 7 mph 1006.6mb 43f 47f
8:18pm 6 7 mph 1006.5mb 43f 47f
8:12pm 6 8 mph 1006.4mb 43f 47f
8:06pm 7 8 mph 1006.4mb 43f 47f
8:00pm 6 9 mph 1006.3mb 43f 47f
7:54pm 8 11 mph 1006.3mb 43f 47f
7:48pm 7 10 mph 1006.2mb 43f 47f
7:42pm 5 8 mph 1006.2mb 43f 47f
7:36pm 5 6 mph 1006mb 43f 47f
7:30pm 3 7 mph 1005.9mb 43f 47f
7:24pm 7 9 mph 1005.8mb 43f 47f
7:18pm 6 7 mph 1005.8mb 43f 47f
7:12pm 5 9 mph 1005.7mb 43f 47f
7:06pm 5 9 mph 1005.6mb 43f 47f
7:00pm 6 8 mph 1005.6mb 43f 47f
6:54pm 5 8 mph 1005.5mb 43f 47f
6:48pm 6 11 mph 1005.4mb 43f 47f
6:42pm 6 10 mph 1005.4mb 43f 47f
6:36pm 3 7 mph 1005.3mb 43f 47f
6:30pm 1 6 mph 1005.1mb 43f 47f
6:24pm 2 5 mph 1005.1mb 43f 47f
6:18pm 3 6 mph 1004.9mb 43f 47f
6:12pm 3 5 mph 1004.7mb 43f 47f
6:06pm 3 6 mph 1004.7mb 43f 47f
6:00pm 6 7 mph 1004.7mb 43f 47f
5:54pm 5 6 mph 1004.6mb 43f 47f
5:48pm 6 7 mph 1004.5mb 43f 47f
5:42pm 5 6 mph 1004.3mb 43f 47f
5:36pm 6 7 mph 1004.2mb 43f 46f
5:30pm 5 6 mph 1004.2mb 43f 45f
5:24pm 3 6 mph 1004.1mb 43f 45f
5:18pm 2 5 mph 1004mb 43f 45f
5:12pm 3 7 mph 1003.8mb 43f 45f
5:06pm 5 6 mph 1003.8mb 43f 45f
5:00pm 2 5 mph 1003.7mb 43f 45f
4:54pm 2 6 mph 1003.7mb 43f 44f
4:48pm 5 6 mph 1003.6mb 43f 45f
4:42pm 6 9 mph 1003.5mb 43f 45f
4:36pm 5 7 mph 1003.4mb 43f 45f
4:30pm 5 7 mph 1003.3mb 43f 45f
4:24pm 6 8 mph 1003.2mb 43f 45f
4:18pm 5 7 mph 1003.2mb 43f 45f
4:12pm 3 6 mph 1003.1mb 43f 45f
4:06pm 5 6 mph 1003mb 43f 45f
4:00pm 2 6 mph 1002.8mb 43f 45f
3:54pm 5 7 mph 1002.8mb 43f 45f
3:48pm 6 8 mph 1002.6mb 43f 45f
3:42pm 6 8 mph 1002.5mb 43f 45f
3:36pm 7 10 mph 1002.4mb 43f 46f
3:30pm 9 10 mph 1002.3mb 43f 46f
3:24pm 7 9 mph 1002.1mb 43f 45f
3:18pm 7 9 mph 1002mb 43f 45f
3:12pm 7 9 mph 1001.9mb 43f 45f
3:06pm 7 9 mph 1001.7mb 43f 46f
3:00pm 7 8 mph 1001.6mb 43f 45f
2:54pm 7 8 mph 1001.4mb 43f 45f
2:48pm 5 6 mph 1001.3mb 43f 45f
2:42pm 5 7 mph 1001.2mb 43f 45f
2:36pm 6 7 mph 1001.1mb 43f 44f
2:30pm 5 7 mph 1001mb 43f 45f
2:24pm 5 7 mph 1000.9mb 43f 45f
2:18pm 6 7 mph 1000.8mb 43f 45f
2:12pm 6 8 mph 1000.7mb 43f 45f
2:06pm 8 10 mph 1000.5mb 43f 46f
2:00pm 6 8 mph 1000.4mb 43f 46f
1:54pm 2 5 mph 1000.2mb 43f 46f
1:48pm 2 3 mph 1000.1mb 43f 45f
1:42pm 3 6 mph 1000.1mb 43f 45f
1:36pm 3 5 mph 1000mb 43f 46f
1:30pm 1 6 mph 999.9mb 43f 46f
1:24pm 5 6 mph 999.8mb 43f 46f
1:18pm 5 6 mph 999.7mb 43f 46f
1:12pm 2 3 mph 999.6mb 43f 46f
1:06pm  -  2 mph 999.6mb 43f 47f
1:00pm 1 3 mph 999.5mb 43f 47f
12:54pm  -  1 mph 999.4mb 43f 47f
12:48pm 1 2 mph 999.3mb 43f 47f
12:42pm 1 2 mph 999.3mb 43f 46f
12:36pm 1 2 mph 999.3mb 43f 46f
12:30pm 1 2 mph 999.2mb 43f 46f
12:24pm  -  mph 999.2mb 43f 46f
12:18pm  -  1 mph 999.1mb 43f 46f
12:12pm 1 2 mph 999.1mb 43f 46f
12:06pm 1 2 mph 999.2mb 43f 45f
12:00pm 1 2 mph 999.2mb 43f 46f
11:54am 2
mph
999.2mb 43f 47f
11:48am 2 3 mph 999.1mb 43f 47f
11:42am 3
mph
999.1mb 43f 46f
11:36am 3
mph
999mb 43f 47f
11:30am 1 2 mph 998.9mb 43f 48f
11:24am  -  1 mph 998.9mb 43f 48f
11:18am  -  1 mph 998.8mb 43f 48f
11:12am  -  3 mph 998.8mb 43f 48f
11:06am 3 6 mph 998.8mb 43f 47f
11:00am 5 6 mph 998.7mb 42f 47f
10:54am 6
mph
998.7mb 42f 47f
10:48am 5 6 mph 998.6mb 42f 47f
10:42am 5 6 mph 998.6mb 42f 47f
10:36am 5 6 mph 998.5mb 42f 47f
10:30am 5 6 mph 998.4mb 42f 47f
10:24am 6
mph
998.4mb 42f 47f
10:18am 6
mph
998.3mb 42f 47f
10:12am 1 3 mph 998.1mb 42f 47f
10:06am 2 3 mph 998.1mb 42f 47f
10:00am 3 6 mph 998mb 42f 47f
9:54am 3 5 mph 998.1mb 42f 47f
9:48am 3 6 mph 998.1mb 42f 47f
9:42am 5 6 mph 998.1mb 42f 47f
9:36am 5 6 mph 997.9mb 42f 47f
9:30am 3 5 mph 997.8mb 42f 47f
9:24am 2
mph
997.8mb 42f 47f
9:18am 2
mph
997.8mb 42f 47f
9:12am 1 2 mph 997.8mb 42f 47f
9:06am 2 3 mph 997.7mb 42f 47f
9:00am  -  2 mph 997.7mb 42f 48f
8:54am 2
mph
997.6mb 42f 48f
8:48am 2 5 mph 997.6mb 42f 47f
8:42am 2 3 mph 997.7mb 42f 47f
8:36am 2 3 mph 997.7mb 42f 47f
8:30am 1 3 mph 997.7mb 42f 47f
8:24am  -  3 mph 997.6mb 42f 46f
8:18am 1 2 mph 997.5mb 42f 47f
8:12am  -  2 mph 997.6mb 42f 46f
8:06am 2 3 mph 997.4mb 42f 46f
8:00am 3
mph
997.3mb 42f 46f
7:54am 2 5 mph 997.4mb 42f 46f
7:48am 1 2 mph 997.5mb 42f 47f
7:42am  -  3 mph 997.4mb 42f 47f
7:36am 2
mph
997.5mb 42f 47f
7:30am  -  1 mph 997.6mb 42f 48f
7:24am 1 2 mph 997.7mb 42f 48f
7:18am  -  1 mph 997.6mb 42f 47f
7:12am  -  2 mph 997.5mb 42f 47f
7:06am  -  3 mph 997.4mb 42f 47f
7:00am 1 2 mph 997.5mb 42f 47f
6:54am  -  1 mph 997.4mb 42f 47f
6:48am  -  2 mph 997.3mb 42f 47f
6:42am 2
mph
997.3mb 42f 47f
6:36am 2 3 mph 997.2mb 42f 46f
6:30am 2 3 mph 997.1mb 42f 47f
6:24am  -  3 mph 997.1mb 42f 47f